Time;durP1;ratioP1;P1;durP2;ratioP2;P2;SDS_P1;SDS_P2;PMS_P1;PMS_P2;Temp;Humidity;BMP_temperature;BMP_pressure;BME280_temperature;BME280_humidity;BME280_pressure;Samples;Min_cycle;Max_cycle;Signal;HPM_P1;HPM_P2
2021/01/16 00:00:18;;;;;;;19.52;14.10;;;1.10;99.90;;;;;;4973049;28;20175;-78
2021/01/16 00:02:44;;;;;;;18.67;13.23;;;1.00;99.90;;;;;;4984953;28;20229;-78
2021/01/16 00:05:10;;;;;;;20.40;15.37;;;1.10;99.90;;;;;;4992387;28;20187;-77
2021/01/16 00:07:36;;;;;;;21.08;15.20;;;1.00;99.90;;;;;;4977769;28;20578;-79
2021/01/16 00:10:02;;;;;;;25.00;16.10;;;1.00;99.90;;;;;;4975562;28;20210;-79
2021/01/16 00:12:28;;;;;;;21.45;13.88;;;1.00;99.90;;;;;;4980754;28;20203;-79
2021/01/16 00:14:53;;;;;;;24.67;15.90;;;1.00;99.90;;;;;;4973511;28;20205;-79
2021/01/16 00:17:19;;;;;;;19.30;14.43;;;1.10;99.90;;;;;;4988087;28;20577;-79
2021/01/16 00:19:45;;;;;;;25.43;14.53;;;1.10;99.90;;;;;;4986084;28;20198;-78
2021/01/16 00:22:10;;;;;;;21.67;14.40;;;1.10;99.90;;;;;;4968890;28;20200;-78
2021/01/16 00:24:36;;;;;;;20.53;14.07;;;1.10;99.90;;;;;;4974423;28;20215;-79
2021/01/16 00:27:01;;;;;;;22.63;14.90;;;1.10;99.90;;;;;;4988285;28;20575;-79
2021/01/16 00:29:27;;;;;;;24.07;15.07;;;1.00;99.90;;;;;;4985739;28;20547;-78
2021/01/16 00:31:53;;;;;;;19.67;12.97;;;1.00;99.90;;;;;;4972252;28;20290;-79
2021/01/16 00:34:18;;;;;;;22.13;14.80;;;1.00;99.90;;;;;;4988692;28;20326;-78
2021/01/16 00:36:44;;;;;;;20.50;14.70;;;1.00;99.90;;;;;;4991341;28;20182;-79
2021/01/16 00:39:10;;;;;;;18.60;14.57;;;1.00;99.90;;;;;;4969128;28;20194;-79
2021/01/16 00:41:35;;;;;;;19.00;13.40;;;1.00;99.90;;;;;;4981199;28;20214;-79
2021/01/16 00:44:01;;;;;;;26.07;15.90;;;1.00;99.90;;;;;;4972643;28;20191;-79
2021/01/16 00:46:27;;;;;;;22.97;14.70;;;1.00;99.90;;;;;;4972771;28;20410;-79
2021/01/16 00:48:52;;;;;;;26.90;14.10;;;1.00;99.90;;;;;;4972248;28;20194;-79
2021/01/16 00:51:18;;;;;;;22.17;15.07;;;1.00;99.90;;;;;;4978608;28;20277;-79
2021/01/16 00:53:44;;;;;;;19.80;15.30;;;1.00;99.90;;;;;;4990595;28;20693;-78
2021/01/16 00:56:09;;;;;;;25.10;14.70;;;1.00;99.90;;;;;;4983501;28;20183;-78
2021/01/16 00:58:35;;;;;;;23.03;14.60;;;1.00;99.90;;;;;;4973396;28;20219;-77
2021/01/16 01:01:01;;;;;;;25.83;15.77;;;1.00;99.90;;;;;;4974437;28;20278;-78
2021/01/16 01:03:26;;;;;;;23.10;15.23;;;1.00;99.90;;;;;;4974734;28;20238;-78
2021/01/16 01:05:54;;;;;;;24.47;15.73;;;1.00;99.90;;;;;;4987391;28;20549;-78
2021/01/16 01:08:27;;;;;;;21.05;14.63;;;1.00;99.90;;;;;;4994028;28;20694;-77
2021/01/16 01:10:53;;;;;;;19.83;14.23;;;1.00;99.90;;;;;;4975585;28;20210;-78
2021/01/16 01:13:18;;;;;;;24.60;14.77;;;1.00;99.90;;;;;;4994322;28;20234;-78
2021/01/16 01:15:44;;;;;;;23.60;15.03;;;1.00;99.90;;;;;;4975710;28;20194;-78
2021/01/16 01:18:10;;;;;;;22.20;14.80;;;1.00;99.90;;;;;;4975369;28;20199;-78
2021/01/16 01:20:36;;;;;;;21.63;13.93;;;1.00;99.90;;;;;;4975899;28;20282;-78
2021/01/16 01:23:02;;;;;;;19.10;15.07;;;0.90;99.90;;;;;;4974855;28;20215;-78
2021/01/16 01:25:28;;;;;;;20.02;13.90;;;1.00;99.90;;;;;;4992413;28;20564;-78
2021/01/16 01:27:56;;;;;;;22.73;15.57;;;1.00;99.90;;;;;;4988355;28;20742;-79
2021/01/16 01:30:24;;;;;;;23.10;14.27;;;1.00;99.90;;;;;;4971706;28;20215;-79
2021/01/16 01:32:50;;;;;;;19.25;14.32;;;1.00;99.90;;;;;;4971725;28;20211;-79
2021/01/16 01:35:17;;;;;;;22.00;14.57;;;1.00;99.90;;;;;;4971627;28;20195;-79
2021/01/16 01:37:54;;;;;;;21.58;14.73;;;1.00;99.90;;;;;;4971495;28;20298;-79
2021/01/16 01:40:23;;;;;;;19.95;14.70;;;1.00;99.90;;;;;;4973566;28;20588;-78
2021/01/16 01:42:51;;;;;;;20.38;15.00;;;0.90;99.90;;;;;;4972179;28;20580;-79
2021/01/16 01:45:17;;;;;;;22.92;16.05;;;1.00;99.90;;;;;;4965241;28;20202;-78
2021/01/16 01:47:44;;;;;;;26.02;15.15;;;1.00;99.90;;;;;;4988904;28;20218;-79
2021/01/16 01:50:12;;;;;;;21.15;14.52;;;0.90;99.90;;;;;;4970812;28;20210;-79
2021/01/16 01:52:39;;;;;;;21.67;14.35;;;1.00;99.90;;;;;;4958515;28;20577;-78
2021/01/16 01:55:07;;;;;;;20.33;15.07;;;1.00;99.90;;;;;;4990970;28;20188;-79
2021/01/16 01:57:36;;;;;;;22.52;15.10;;;0.90;99.90;;;;;;4989459;28;20195;-79
2021/01/16 02:00:09;;;;;;;21.30;14.82;;;1.00;99.90;;;;;;4988918;28;20187;-78
2021/01/16 02:02:36;;;;;;;31.05;16.00;;;1.00;99.90;;;;;;4971047;28;20323;-79
2021/01/16 02:05:04;;;;;;;23.00;14.80;;;1.00;99.90;;;;;;4983828;28;20299;-78
2021/01/16 02:07:40;;;;;;;21.88;14.27;;;1.00;99.90;;;;;;4963239;28;20214;-78
2021/01/16 02:10:11;;;;;;;21.65;15.45;;;1.00;99.90;;;;;;4953409;28;20199;-78
2021/01/16 02:12:40;;;;;;;20.48;15.45;;;0.90;99.90;;;;;;4953225;28;20214;-79
2021/01/16 02:15:18;;;;;;;19.92;13.73;;;0.90;99.90;;;;;;4970660;28;20665;-78
2021/01/16 02:17:47;;;;;;;23.10;13.88;;;0.90;99.90;;;;;;4978945;28;20914;-78
2021/01/16 02:20:27;;;;;;;23.55;13.98;;;0.90;99.90;;;;;;4990351;28;20218;-78
2021/01/16 02:23:18;;;;;;;23.73;14.23;;;1.00;99.90;;;;;;4972170;28;20226;-78
2021/01/16 02:26:15;;;;;;;20.85;14.52;;;0.90;99.90;;;;;;4982448;28;20198;-79
2021/01/16 02:29:05;;;;;;;19.88;13.40;;;1.00;99.90;;;;;;4989493;28;20621;-78
2021/01/16 02:31:33;;;;;;;23.83;13.70;;;0.90;99.90;;;;;;4972112;28;20203;-78
2021/01/16 02:34:00;;;;;;;18.52;13.15;;;1.00;99.90;;;;;;4970455;28;20195;-78
2021/01/16 02:36:35;;;;;;;17.85;13.35;;;1.00;99.90;;;;;;4985503;28;20229;-78
2021/01/16 02:39:28;;;;;;;18.95;12.95;;;0.90;99.90;;;;;;4979829;28;20199;-78
2021/01/16 02:42:08;;;;;;;19.40;12.30;;;0.90;99.90;;;;;;4970266;28;20286;-78
2021/01/16 02:44:34;;;;;;;19.88;13.43;;;0.90;99.90;;;;;;4974940;28;20202;-78
2021/01/16 02:47:11;;;;;;;21.50;15.13;;;0.90;99.90;;;;;;4968443;28;20211;-78
2021/01/16 02:49:54;;;;;;;20.90;13.77;;;0.90;99.90;;;;;;4983823;28;20197;-78
2021/01/16 02:52:21;;;;;;;16.75;12.70;;;0.90;99.90;;;;;;4989549;28;20209;-78
2021/01/16 02:54:48;;;;;;;19.40;14.60;;;0.90;99.90;;;;;;4975024;28;20278;-78
2021/01/16 02:57:14;;;;;;;20.90;13.45;;;0.90;99.90;;;;;;4969695;28;20342;-79
2021/01/16 02:59:44;;;;;;;19.67;14.23;;;0.90;99.90;;;;;;4970741;28;20562;-78
2021/01/16 03:02:20;;;;;;;22.65;14.02;;;0.90;99.90;;;;;;4953743;28;20210;-78
2021/01/16 03:04:46;;;;;;;17.35;13.27;;;0.90;99.90;;;;;;4970814;28;20191;-78
2021/01/16 03:07:13;;;;;;;17.73;12.70;;;0.90;99.90;;;;;;4971960;28;20207;-78
2021/01/16 03:09:40;;;;;;;20.83;15.32;;;0.90;99.90;;;;;;4972510;28;20602;-79
2021/01/16 03:12:09;;;;;;;18.63;14.15;;;0.90;99.90;;;;;;4971644;28;20589;-78
2021/01/16 03:14:37;;;;;;;22.38;13.50;;;0.90;99.90;;;;;;4973479;28;20996;-78
2021/01/16 03:17:14;;;;;;;20.13;14.30;;;0.90;99.90;;;;;;4975302;28;20210;-78
2021/01/16 03:19:48;;;;;;;21.38;13.07;;;0.90;99.90;;;;;;4991382;28;20205;-78
2021/01/16 03:22:24;;;;;;;17.83;12.75;;;0.90;99.90;;;;;;4986530;28;20293;-78
2021/01/16 03:24:55;;;;;;;21.52;14.65;;;0.90;99.90;;;;;;4972743;28;20197;-78
2021/01/16 03:27:25;;;;;;;24.42;14.77;;;0.90;99.90;;;;;;4991411;28;20214;-78
2021/01/16 03:29:51;;;;;;;23.23;13.60;;;0.90;99.90;;;;;;4974176;28;20207;-78
2021/01/16 03:32:17;;;;;;;22.08;14.45;;;0.90;99.90;;;;;;4971785;28;20210;-78
2021/01/16 03:34:45;;;;;;;21.70;14.95;;;0.90;99.90;;;;;;4972002;28;20191;-78
2021/01/16 03:37:11;;;;;;;20.75;14.63;;;0.90;99.90;;;;;;4972162;28;20209;-79
2021/01/16 03:39:38;;;;;;;20.70;13.65;;;0.90;99.90;;;;;;4955001;28;20167;-78
2021/01/16 03:42:05;;;;;;;23.98;14.73;;;1.00;99.90;;;;;;4979695;28;20289;-78
2021/01/16 03:44:31;;;;;;;18.20;13.00;;;1.00;99.90;;;;;;4990783;28;20182;-78
2021/01/16 03:46:57;;;;;;;16.53;13.17;;;1.00;99.90;;;;;;4976574;28;20551;-78
2021/01/16 03:49:22;;;;;;;21.20;14.63;;;0.90;99.90;;;;;;4972166;28;20160;-78
2021/01/16 03:51:49;;;;;;;18.23;13.27;;;0.90;99.90;;;;;;4982881;28;20214;-78
2021/01/16 03:54:14;;;;;;;19.45;13.40;;;0.90;99.90;;;;;;4986751;28;20206;-78
2021/01/16 03:56:40;;;;;;;18.87;13.77;;;0.90;99.90;;;;;;4971240;28;20678;-79
2021/01/16 03:59:06;;;;;;;22.17;13.70;;;0.90;99.90;;;;;;4975160;28;20174;-78
2021/01/16 04:01:35;;;;;;;21.83;15.13;;;0.90;99.90;;;;;;4990961;28;20193;-78
2021/01/16 04:04:01;;;;;;;24.38;15.25;;;0.90;99.90;;;;;;4985258;28;20194;-78
2021/01/16 04:06:27;;;;;;;19.33;14.30;;;0.90;99.90;;;;;;4986960;28;20194;-78
2021/01/16 04:08:53;;;;;;;20.27;13.55;;;0.90;99.90;;;;;;4995535;28;20728;-78
2021/01/16 04:11:19;;;;;;;24.17;16.03;;;0.90;99.90;;;;;;4995076;28;20297;-78
2021/01/16 04:13:45;;;;;;;21.50;14.17;;;0.90;99.90;;;;;;4992817;28;20600;-78
2021/01/16 04:16:11;;;;;;;20.53;14.13;;;1.00;99.90;;;;;;4994669;28;20425;-78
2021/01/16 04:18:37;;;;;;;24.53;14.27;;;1.00;99.90;;;;;;4987647;28;20449;-78
2021/01/16 04:21:04;;;;;;;23.23;15.33;;;1.00;99.90;;;;;;4975530;28;20443;-78
2021/01/16 04:23:29;;;;;;;20.10;14.43;;;0.90;99.90;;;;;;4981189;28;20210;-78
2021/01/16 04:25:55;;;;;;;21.63;14.53;;;0.90;99.90;;;;;;4994757;28;20201;-78
2021/01/16 04:28:21;;;;;;;17.88;13.27;;;1.00;99.90;;;;;;4992601;28;20537;-78
2021/01/16 04:30:47;;;;;;;20.10;14.30;;;1.00;99.90;;;;;;4994465;28;20565;-79
2021/01/16 04:33:13;;;;;;;21.17;14.32;;;1.00;99.90;;;;;;4994286;28;20456;-78
2021/01/16 04:35:39;;;;;;;20.47;13.93;;;1.00;99.90;;;;;;4993565;28;20293;-79
2021/01/16 04:38:05;;;;;;;19.20;12.73;;;1.00;99.90;;;;;;4989586;28;20462;-78
2021/01/16 04:40:32;;;;;;;17.23;13.57;;;1.00;99.90;;;;;;4974231;28;20693;-78
2021/01/16 04:43:03;;;;;;;21.38;14.60;;;0.90;99.90;;;;;;4983280;28;20265;-78
2021/01/16 04:45:31;;;;;;;21.63;14.23;;;0.90;99.90;;;;;;4992597;28;20206;-78
2021/01/16 04:48:01;;;;;;;20.90;14.43;;;0.90;99.90;;;;;;4973156;28;20235;-78
2021/01/16 04:50:32;;;;;;;23.75;13.38;;;0.90;99.90;;;;;;4975731;28;20238;-78
2021/01/16 04:53:06;;;;;;;18.75;14.15;;;0.90;99.90;;;;;;4993746;28;20214;-78
2021/01/16 04:55:34;;;;;;;19.65;12.40;;;0.90;99.90;;;;;;4983803;28;20201;-78
2021/01/16 04:58:08;;;;;;;19.60;12.90;;;0.90;99.90;;;;;;4974218;28;20211;-78
2021/01/16 05:00:39;;;;;;;20.85;13.02;;;0.90;99.90;;;;;;4988034;28;20257;-78
2021/01/16 05:03:11;;;;;;;18.02;11.73;;;1.00;99.90;;;;;;4993897;28;20228;-78
2021/01/16 05:05:42;;;;;;;21.40;13.27;;;1.00;99.90;;;;;;4981128;28;20209;-78
2021/01/16 05:08:09;;;;;;;19.52;13.60;;;1.00;99.90;;;;;;4975069;28;20480;-78
2021/01/16 05:10:40;;;;;;;21.50;14.88;;;0.90;99.90;;;;;;4994277;28;20562;-78
2021/01/16 05:13:13;;;;;;;23.42;12.60;;;0.90;99.90;;;;;;4989278;28;20317;-78
2021/01/16 05:15:45;;;;;;;24.63;12.75;;;0.90;99.90;;;;;;4981034;28;20191;-78
2021/01/16 05:18:13;;;;;;;18.50;13.23;;;0.90;99.90;;;;;;4972044;28;20238;-78
2021/01/16 05:20:42;;;;;;;22.13;13.60;;;0.90;99.90;;;;;;4975098;28;20195;-78
2021/01/16 05:23:13;;;;;;;21.65;13.40;;;0.90;99.90;;;;;;4981389;28;20642;-77
2021/01/16 05:25:58;;;;;;;15.65;11.50;;;0.90;99.90;;;;;;4981018;28;20266;-77
2021/01/16 05:28:25;;;;;;;19.98;12.60;;;0.90;99.90;;;;;;4996265;28;20214;-78
2021/01/16 05:30:52;;;;;;;16.30;12.30;;;1.00;99.90;;;;;;4993362;28;20229;-78
2021/01/16 05:33:20;;;;;;;18.75;12.98;;;1.00;99.90;;;;;;4982870;28;20579;-78
2021/01/16 05:35:49;;;;;;;22.02;13.25;;;1.00;99.90;;;;;;4974078;28;20626;-78
2021/01/16 05:38:16;;;;;;;16.67;11.65;;;1.10;99.90;;;;;;4973760;28;20203;-78
2021/01/16 05:40:43;;;;;;;17.48;12.15;;;1.00;99.90;;;;;;4976887;28;20557;-78
2021/01/16 05:43:09;;;;;;;17.65;12.27;;;1.10;99.90;;;;;;4992859;28;20321;-78
2021/01/16 05:45:36;;;;;;;21.10;12.88;;;1.00;99.90;;;;;;4990219;28;20194;-78
2021/01/16 05:48:04;;;;;;;17.25;12.20;;;1.00;99.90;;;;;;4973331;28;20215;-78
2021/01/16 05:50:30;;;;;;;17.77;13.60;;;0.90;99.90;;;;;;4973690;28;20278;-78
2021/01/16 05:52:57;;;;;;;19.92;12.98;;;1.00;99.90;;;;;;4975016;28;20213;-78
2021/01/16 05:55:23;;;;;;;22.55;12.10;;;1.00;99.90;;;;;;4974263;28;20179;-78
2021/01/16 05:57:51;;;;;;;20.67;13.27;;;0.90;99.90;;;;;;4974931;28;20832;-78
2021/01/16 06:00:24;;;;;;;17.63;12.60;;;0.90;99.90;;;;;;4993505;28;20537;-78
2021/01/16 06:02:57;;;;;;;18.92;12.93;;;0.90;99.90;;;;;;4990536;28;20207;-78
2021/01/16 06:05:25;;;;;;;16.48;11.07;;;0.90;99.90;;;;;;4973670;28;20171;-78
2021/01/16 06:07:52;;;;;;;16.17;12.23;;;0.90;99.90;;;;;;4973829;28;20215;-78
2021/01/16 06:10:20;;;;;;;20.20;13.13;;;0.90;99.90;;;;;;4990645;28;20194;-79
2021/01/16 06:12:48;;;;;;;19.92;13.40;;;0.90;99.90;;;;;;4953546;29;20296;-78
2021/01/16 06:15:19;;;;;;;19.05;12.40;;;0.80;99.90;;;;;;4953939;29;20195;-79
2021/01/16 06:17:47;;;;;;;21.23;11.75;;;0.80;99.90;;;;;;4990998;28;20218;-78
2021/01/16 06:20:18;;;;;;;18.92;12.60;;;1.00;99.90;;;;;;4992950;28;20151;-78
2021/01/16 06:22:49;;;;;;;19.38;12.45;;;1.00;99.90;;;;;;4975893;28;20214;-78
2021/01/16 06:25:20;;;;;;;17.90;12.68;;;1.00;99.90;;;;;;4992563;28;20182;-78
2021/01/16 06:27:47;;;;;;;15.95;11.55;;;0.90;99.90;;;;;;4972337;28;20226;-78
2021/01/16 06:30:15;;;;;;;16.83;12.23;;;0.90;99.90;;;;;;4972960;28;20286;-78
2021/01/16 06:32:53;;;;;;;21.02;12.68;;;0.80;99.90;;;;;;4988953;28;20237;-78
2021/01/16 06:35:20;;;;;;;21.58;14.00;;;0.80;99.90;;;;;;4992299;28;20167;-78
2021/01/16 06:37:48;;;;;;;21.52;13.38;;;0.80;99.90;;;;;;4988655;28;20701;-78
2021/01/16 06:40:29;;;;;;;20.25;12.43;;;0.80;99.90;;;;;;4992623;28;20187;-78
2021/01/16 06:42:55;;;;;;;18.98;11.80;;;0.80;99.90;;;;;;4990408;28;20218;-78
2021/01/16 06:45:29;;;;;;;19.05;12.27;;;0.80;99.90;;;;;;4992125;28;20205;-78
2021/01/16 06:47:57;;;;;;;20.55;13.75;;;0.80;99.90;;;;;;4955281;28;20219;-79
2021/01/16 06:50:23;;;;;;;21.25;13.90;;;0.80;99.90;;;;;;4974217;28;20255;-78
2021/01/16 06:52:49;;;;;;;18.85;13.48;;;0.80;99.90;;;;;;4991181;28;20551;-78
2021/01/16 06:55:19;;;;;;;20.07;13.47;;;0.90;99.90;;;;;;4974046;28;20201;-78
2021/01/16 06:57:46;;;;;;;19.30;12.02;;;0.80;99.90;;;;;;4952984;29;20267;-78
2021/01/16 07:00:13;;;;;;;21.20;13.68;;;0.90;99.90;;;;;;4953062;29;20200;-78
2021/01/16 07:02:40;;;;;;;20.33;13.57;;;0.90;99.90;;;;;;4986911;28;20257;-78
2021/01/16 07:05:08;;;;;;;19.55;11.93;;;0.90;99.90;;;;;;4971582;28;20191;-78
2021/01/16 07:07:45;;;;;;;18.63;12.65;;;1.00;99.90;;;;;;4988595;28;20214;-78
2021/01/16 07:10:13;;;;;;;18.60;12.02;;;0.90;99.90;;;;;;4991151;28;20589;-79
2021/01/16 07:12:46;;;;;;;16.33;11.25;;;0.90;99.90;;;;;;4979452;28;20206;-78
2021/01/16 07:15:12;;;;;;;19.15;13.30;;;0.90;99.90;;;;;;4991081;28;20681;-78
2021/01/16 07:17:38;;;;;;;17.40;10.75;;;0.90;99.90;;;;;;4987994;28;20221;-78
2021/01/16 07:20:08;;;;;;;18.25;11.07;;;0.90;99.90;;;;;;4991409;28;20190;-78
2021/01/16 07:22:38;;;;;;;18.70;10.90;;;0.90;99.90;;;;;;4974828;28;20265;-78
2021/01/16 07:25:05;;;;;;;17.42;11.52;;;0.80;99.90;;;;;;4978601;28;20278;-78
2021/01/16 07:27:33;;;;;;;17.65;11.27;;;0.80;99.90;;;;;;4990447;28;20628;-78
2021/01/16 07:30:05;;;;;;;17.08;11.95;;;0.90;99.90;;;;;;4991153;28;20198;-78
2021/01/16 07:32:42;;;;;;;17.70;11.40;;;0.80;99.90;;;;;;4989710;28;20213;-78
2021/01/16 07:35:10;;;;;;;20.02;12.35;;;0.80;99.90;;;;;;4989634;28;20201;-78
2021/01/16 07:37:38;;;;;;;16.80;11.70;;;0.80;99.90;;;;;;4975222;28;20287;-78
2021/01/16 07:40:04;;;;;;;18.00;11.80;;;0.80;99.90;;;;;;5003029;28;20284;-78
2021/01/16 07:42:32;;;;;;;18.17;12.73;;;0.80;99.90;;;;;;4986373;28;20211;-78
2021/01/16 07:45:09;;;;;;;20.52;13.38;;;0.80;99.90;;;;;;4980775;28;20205;-78
2021/01/16 07:47:42;;;;;;;18.13;12.35;;;0.80;99.90;;;;;;4983391;28;20218;-78
2021/01/16 07:50:26;;;;;;;14.73;11.23;;;0.80;99.90;;;;;;4977773;28;20197;-78
2021/01/16 07:53:05;;;;;;;18.38;11.30;;;0.80;99.90;;;;;;4994718;28;20577;-78
2021/01/16 07:55:36;;;;;;;15.90;11.52;;;0.80;99.90;;;;;;4979480;28;20193;-78
2021/01/16 07:58:31;;;;;;;15.48;10.02;;;0.80;99.90;;;;;;4978147;28;20215;-78
2021/01/16 08:01:16;;;;;;;18.55;12.32;;;0.80;99.90;;;;;;4972665;28;20218;-78
2021/01/16 08:03:56;;;;;;;19.33;11.38;;;0.80;99.90;;;;;;4979393;28;20254;-77
2021/01/16 08:06:31;;;;;;;17.75;11.23;;;0.80;99.90;;;;;;4986985;28;20195;-77
2021/01/16 08:09:15;;;;;;;17.92;11.63;;;0.80;99.90;;;;;;5003237;28;20225;-77
2021/01/16 08:11:49;;;;;;;19.70;12.65;;;0.80;99.90;;;;;;4995009;28;20290;-77
2021/01/16 08:14:22;;;;;;;18.58;11.55;;;0.80;99.90;;;;;;4997519;28;20186;-77
2021/01/16 08:16:59;;;;;;;18.75;13.27;;;0.80;99.90;;;;;;4985482;28;20585;-78
2021/01/16 08:19:32;;;;;;;20.13;12.23;;;0.80;99.90;;;;;;4984060;28;20181;-77
2021/01/16 08:21:59;;;;;;;19.10;12.75;;;0.80;99.90;;;;;;4984067;28;20574;-78
2021/01/16 08:24:27;;;;;;;18.60;12.50;;;0.70;99.90;;;;;;5000032;28;20769;-79
2021/01/16 08:27:03;;;;;;;17.17;12.13;;;0.70;99.90;;;;;;4984756;28;20285;-78
2021/01/16 08:29:30;;;;;;;18.02;11.80;;;0.80;99.90;;;;;;4977737;28;20177;-78
2021/01/16 08:32:11;;;;;;;21.40;12.55;;;0.70;99.90;;;;;;4988393;28;20218;-78
2021/01/16 08:34:57;;;;;;;18.90;12.80;;;0.80;99.90;;;;;;4996133;28;20283;-78
2021/01/16 08:37:41;;;;;;;21.55;11.73;;;0.80;99.90;;;;;;4982222;28;20358;-78
2021/01/16 08:40:10;;;;;;;17.50;11.90;;;0.80;99.90;;;;;;4996279;28;20649;-78
2021/01/16 08:42:53;;;;;;;22.48;14.02;;;0.80;99.90;;;;;;4983874;28;20748;-78
2021/01/16 08:45:19;;;;;;;24.92;15.23;;;0.80;99.90;;;;;;4983205;28;20627;-78
2021/01/16 08:47:57;;;;;;;18.85;12.23;;;0.80;99.90;;;;;;4987780;28;20218;-78
2021/01/16 08:50:31;;;;;;;22.60;13.63;;;0.80;99.90;;;;;;4993134;28;20210;-78
2021/01/16 08:52:57;;;;;;;20.65;11.95;;;0.90;99.90;;;;;;4954545;28;20231;-78
2021/01/16 08:55:30;;;;;;;19.05;12.93;;;0.90;99.90;;;;;;4976055;28;20198;-77
2021/01/16 08:58:10;;;;;;;18.63;12.10;;;0.90;99.90;;;;;;4998877;28;20309;-78
2021/01/16 09:00:38;;;;;;;16.52;11.32;;;0.90;99.90;;;;;;4995806;28;20205;-78
2021/01/16 09:03:09;;;;;;;21.13;11.57;;;0.90;99.90;;;;;;4996652;28;20233;-77
2021/01/16 09:05:36;;;;;;;18.15;12.48;;;1.00;99.90;;;;;;4994182;28;20576;-78
2021/01/16 09:08:03;;;;;;;22.10;12.27;;;1.00;99.90;;;;;;4959199;29;20239;-78
2021/01/16 09:10:31;;;;;;;19.17;12.80;;;1.00;99.90;;;;;;4960665;28;20208;-78
2021/01/16 09:12:59;;;;;;;26.08;12.95;;;1.00;99.90;;;;;;4982078;28;20215;-78
2021/01/16 09:15:39;;;;;;;24.35;12.98;;;1.00;99.90;;;;;;4976605;28;20176;-78
2021/01/16 09:18:08;;;;;;;15.93;11.15;;;1.10;99.90;;;;;;4973491;28;20219;-78
2021/01/16 09:20:39;;;;;;;23.10;13.48;;;1.10;99.90;;;;;;4977220;28;20258;-78
2021/01/16 09:23:29;;;;;;;22.17;12.23;;;1.10;99.90;;;;;;4971967;28;20669;-77
2021/01/16 09:25:57;;;;;;;15.65;11.30;;;1.10;99.90;;;;;;4951596;28;20565;-78
2021/01/16 09:28:48;;;;;;;20.48;13.45;;;1.10;99.90;;;;;;4983019;28;20222;-77
2021/01/16 09:31:38;;;;;;;19.73;12.43;;;1.10;99.90;;;;;;4994256;28;20210;-78
2021/01/16 09:34:17;;;;;;;21.90;12.80;;;1.10;99.90;;;;;;4990544;28;20209;-78
2021/01/16 09:36:56;;;;;;;20.27;13.48;;;1.20;99.90;;;;;;4982645;28;20226;-77
2021/01/16 09:39:30;;;;;;;21.77;12.73;;;1.20;99.90;;;;;;4979590;28;20713;-77
2021/01/16 09:42:03;;;;;;;16.70;11.20;;;1.20;99.90;;;;;;4973804;28;20219;-77
2021/01/16 09:44:41;;;;;;;19.50;12.20;;;1.20;99.90;;;;;;4963945;28;20570;-77
2021/01/16 09:47:25;;;;;;;20.40;12.27;;;1.30;99.90;;;;;;4974257;28;20577;-78
2021/01/16 09:50:12;;;;;;;18.88;12.18;;;1.30;99.90;;;;;;4984464;28;20683;-77
2021/01/16 09:52:47;;;;;;;20.27;12.23;;;1.20;99.90;;;;;;4960305;28;20226;-78
2021/01/16 09:55:17;;;;;;;16.70;12.00;;;1.30;99.90;;;;;;4973103;28;20242;-79
2021/01/16 09:57:43;;;;;;;20.85;11.65;;;1.30;99.90;;;;;;4978103;28;20242;-78
2021/01/16 10:00:36;;;;;;;18.38;11.98;;;1.30;99.90;;;;;;4955478;28;20203;-78
2021/01/16 10:03:05;;;;;;;15.43;11.20;;;1.30;99.90;;;;;;4956449;28;20215;-78
2021/01/16 10:05:39;;;;;;;18.63;11.13;;;1.40;99.90;;;;;;4985640;28;20175;-78
2021/01/16 10:08:07;;;;;;;20.60;12.18;;;1.40;99.90;;;;;;4980389;28;20222;-78
2021/01/16 10:10:47;;;;;;;15.25;10.20;;;1.40;99.90;;;;;;4989603;28;20576;-78
2021/01/16 10:13:25;;;;;;;16.77;11.70;;;1.50;99.90;;;;;;4975495;28;20215;-78
2021/01/16 10:15:52;;;;;;;16.25;11.80;;;1.40;99.90;;;;;;4974327;28;20171;-77
2021/01/16 10:18:20;;;;;;;16.80;10.38;;;1.50;99.90;;;;;;4977047;28;20229;-77
2021/01/16 10:21:02;;;;;;;14.95;9.98;;;1.40;99.90;;;;;;4979106;28;20198;-77
2021/01/16 10:23:30;;;;;;;15.18;10.20;;;1.40;99.90;;;;;;4977337;28;20214;-77
2021/01/16 10:26:02;;;;;;;15.05;10.07;;;1.40;99.90;;;;;;4975552;28;20175;-77
2021/01/16 10:28:29;;;;;;;19.55;10.50;;;1.50;99.90;;;;;;4974323;28;20234;-77
2021/01/16 10:31:04;;;;;;;14.07;9.82;;;1.60;99.90;;;;;;4977284;28;20210;-78
2021/01/16 10:33:43;;;;;;;17.80;10.85;;;1.70;99.90;;;;;;4979600;28;20229;-79
2021/01/16 10:36:13;;;;;;;15.15;9.75;;;1.60;99.90;;;;;;4998006;28;20630;-77
2021/01/16 10:38:51;;;;;;;16.80;9.75;;;1.70;99.90;;;;;;4983255;28;20662;-78
2021/01/16 10:41:41;;;;;;;21.38;10.70;;;1.70;99.90;;;;;;4979092;28;20183;-77
2021/01/16 10:44:11;;;;;;;18.35;10.10;;;1.70;99.90;;;;;;4961458;28;20227;-78
2021/01/16 10:46:37;;;;;;;23.08;12.48;;;1.70;99.90;;;;;;4977527;28;20175;-77
2021/01/16 10:49:20;;;;;;;19.10;10.90;;;1.60;99.90;;;;;;4971781;28;20252;-78
2021/01/16 10:51:51;;;;;;;16.60;10.93;;;1.60;99.90;;;;;;4967832;28;20250;-79
2021/01/16 10:54:18;;;;;;;14.20;10.50;;;1.60;99.90;;;;;;4971615;28;20202;-78
2021/01/16 10:57:01;;;;;;;16.27;10.27;;;1.70;99.90;;;;;;4967734;28;20188;-78
2021/01/16 10:59:31;;;;;;;19.33;10.85;;;1.70;99.90;;;;;;4976264;28;20597;-77
2021/01/16 11:01:58;;;;;;;17.13;11.23;;;1.80;99.90;;;;;;4967996;28;20215;-77
2021/01/16 11:04:29;;;;;;;16.08;10.93;;;1.70;99.90;;;;;;4978668;28;20267;-78
2021/01/16 11:07:02;;;;;;;17.02;10.93;;;1.70;99.90;;;;;;4972106;28;20229;-78
2021/01/16 11:09:34;;;;;;;16.92;9.85;;;1.80;99.90;;;;;;4981117;28;20186;-78
2021/01/16 11:12:05;;;;;;;15.13;10.80;;;1.70;99.90;;;;;;4972886;28;20822;-77
2021/01/16 11:14:42;;;;;;;14.98;11.00;;;1.80;99.90;;;;;;4962680;28;20705;-77
2021/01/16 11:17:09;;;;;;;18.15;10.82;;;1.80;99.90;;;;;;4968524;28;20568;-77
2021/01/16 11:19:41;;;;;;;17.20;11.85;;;1.80;99.90;;;;;;4996922;28;20199;-78
2021/01/16 11:22:11;;;;;;;15.68;10.50;;;1.80;99.90;;;;;;4971578;28;20226;-77
2021/01/16 11:24:55;;;;;;;18.08;11.25;;;1.80;99.90;;;;;;4973804;28;20194;-77
2021/01/16 11:27:26;;;;;;;16.00;11.00;;;1.80;99.90;;;;;;4969636;28;20569;-77
2021/01/16 11:29:54;;;;;;;18.60;10.27;;;1.80;99.90;;;;;;4966629;28;20214;-77
2021/01/16 11:32:22;;;;;;;16.98;11.85;;;1.70;99.90;;;;;;4971284;28;20222;-79
2021/01/16 11:35:06;;;;;;;16.27;11.35;;;1.70;99.90;;;;;;4977450;28;20195;-78
2021/01/16 11:37:51;;;;;;;16.65;10.05;;;1.80;99.90;;;;;;4953621;28;20215;-77
2021/01/16 11:40:26;;;;;;;13.05;8.98;;;1.80;99.90;;;;;;4978512;28;20171;-77
2021/01/16 11:43:00;;;;;;;11.10;8.57;;;1.90;99.90;;;;;;4971485;28;20214;-78
2021/01/16 11:45:26;;;;;;;13.85;8.65;;;1.90;99.90;;;;;;4972459;28;20170;-78
2021/01/16 11:47:55;;;;;;;10.52;8.73;;;1.80;99.90;;;;;;4950024;28;20219;-77
2021/01/16 11:50:22;;;;;;;13.02;9.38;;;1.80;99.90;;;;;;4959927;28;20182;-78
2021/01/16 11:52:48;;;;;;;12.43;8.20;;;1.90;99.90;;;;;;4988410;28;20301;-77
2021/01/16 11:55:15;;;;;;;11.93;8.75;;;2.00;97.00;;;;;;4978840;28;20237;-78
2021/01/16 11:57:43;;;;;;;12.40;8.52;;;2.00;97.30;;;;;;4973242;28;20202;-78
2021/01/16 12:00:11;;;;;;;12.05;9.13;;;2.00;99.20;;;;;;4971035;28;20547;-78
2021/01/16 12:02:37;;;;;;;14.82;9.90;;;1.90;99.50;;;;;;4973625;28;20223;-79
2021/01/16 12:05:13;;;;;;;11.00;8.75;;;1.90;99.90;;;;;;4978039;28;20262;-78
2021/01/16 12:07:47;;;;;;;10.38;8.13;;;1.90;98.10;;;;;;4969351;28;20214;-79
2021/01/16 12:10:17;;;;;;;10.07;7.40;;;1.80;97.60;;;;;;4978598;28;20699;-78
2021/01/16 12:12:43;;;;;;;11.52;8.27;;;1.80;96.90;;;;;;4975921;28;20214;-78
2021/01/16 12:15:24;;;;;;;9.40;7.60;;;1.80;98.50;;;;;;4967383;28;20263;-78
2021/01/16 12:17:51;;;;;;;11.18;7.65;;;2.00;93.50;;;;;;4987391;28;20245;-78
2021/01/16 12:20:21;;;;;;;8.35;6.35;;;2.00;95.90;;;;;;4963229;28;20192;-78
2021/01/16 12:22:50;;;;;;;7.95;5.95;;;1.90;96.80;;;;;;4965253;28;20207;-77
2021/01/16 12:25:17;;;;;;;9.93;6.30;;;2.10;92.90;;;;;;4974855;28;20192;-77
2021/01/16 12:27:50;;;;;;;9.60;6.85;;;2.10;93.40;;;;;;4963365;28;20208;-78
2021/01/16 12:30:24;;;;;;;9.40;7.50;;;2.00;95.60;;;;;;4969207;28;20207;-78
2021/01/16 12:32:50;;;;;;;9.80;6.95;;;1.90;97.10;;;;;;4983633;28;20207;-79
2021/01/16 12:35:23;;;;;;;8.80;6.50;;;1.80;97.10;;;;;;4966582;28;20191;-78
2021/01/16 12:37:49;;;;;;;7.20;5.93;;;1.80;96.00;;;;;;4966723;28;20218;-78
2021/01/16 12:40:20;;;;;;;7.57;5.65;;;1.90;96.30;;;;;;4959026;28;20697;-78
2021/01/16 12:42:47;;;;;;;10.20;7.32;;;1.80;96.00;;;;;;4969162;28;20211;-77
2021/01/16 12:45:18;;;;;;;6.93;6.25;;;1.90;96.10;;;;;;4964649;28;20203;-77
2021/01/16 12:47:47;;;;;;;14.05;8.15;;;1.80;97.40;;;;;;4968152;28;20679;-77
2021/01/16 12:50:13;;;;;;;9.75;7.25;;;1.80;97.50;;;;;;4966368;28;20540;-77
2021/01/16 12:52:45;;;;;;;9.05;6.20;;;1.70;97.10;;;;;;4967037;28;20211;-77
2021/01/16 12:55:14;;;;;;;11.05;7.03;;;1.70;96.80;;;;;;4982479;28;20308;-77